createdAt,value
2019-05-01T00:01:03.824Z,100434.13
2019-05-01T00:02:09.848Z,100432.17
2019-05-01T00:03:21.964Z,100435.84
2019-05-01T00:04:33.644Z,100435.83
2019-05-01T00:05:42.425Z,100423.78
2019-05-01T00:06:50.944Z,100432.25
2019-05-01T00:07:56.197Z,100427.46
2019-05-01T00:09:00.445Z,100428.87
2019-05-01T00:10:06.875Z,100423.84
2019-05-01T00:11:11.349Z,100428.91
2019-05-01T00:12:15.528Z,100431.76
2019-05-01T00:13:19.828Z,100431.19
2019-05-01T00:14:24.009Z,100422.76
2019-05-01T00:15:32.337Z,100422.76
2019-05-01T00:16:36.529Z,100433.42
2019-05-01T00:17:40.973Z,100433.17
2019-05-01T00:18:45.374Z,100427.55
2019-05-01T00:19:49.622Z,100428.96
2019-05-01T00:20:53.909Z,100430.36
2019-05-01T00:21:58.129Z,100423.08
2019-05-01T00:23:02.386Z,100422.23
2019-05-01T00:24:06.618Z,100421.67
2019-05-01T00:25:10.874Z,100420.27
2019-05-01T00:26:15.197Z,100422.51
2019-05-01T00:27:20.551Z,100416.89
2019-05-01T00:28:24.910Z,100416.89
2019-05-01T00:29:29.417Z,100421.11
2019-05-01T00:30:35.314Z,100414.38
2019-05-01T00:31:39.565Z,100423.91
2019-05-01T00:32:43.939Z,100416.91
2019-05-01T00:33:48.224Z,100415.78
2019-05-01T00:34:52.658Z,100408.50
2019-05-01T00:35:56.912Z,100402.61
2019-05-01T00:37:01.181Z,100415.22
2019-05-01T00:38:05.710Z,100402.31
2019-05-01T00:39:11.560Z,100403.45
2019-05-01T00:40:16.182Z,100405.41
2019-05-01T00:41:20.433Z,100406.84
2019-05-01T00:42:24.612Z,100395.61
2019-05-01T00:43:29.226Z,100404.02
2019-05-01T00:44:33.715Z,100401.52
2019-05-01T00:45:37.969Z,100400.39
2019-05-01T00:46:42.226Z,100400.95
2019-05-01T00:47:46.483Z,100402.36
2019-05-01T00:48:50.886Z,100392.02
2019-05-01T00:49:56.176Z,100404.04
2019-05-01T00:51:00.489Z,100402.66
2019-05-01T00:52:04.765Z,100397.63
2019-05-01T00:53:08.954Z,100397.63
2019-05-01T00:54:13.248Z,100400.71
2019-05-01T00:55:34.289Z,100399.90
2019-05-01T00:56:48.700Z,100402.16
2019-05-01T00:57:54.531Z,100398.53
2019-05-01T00:59:00.412Z,100392.65
2019-05-01T01:00:20.630Z,100396.87
2019-05-01T01:01:32.202Z,100397.44
2019-05-01T01:02:38.028Z,100394.05
2019-05-01T01:03:42.212Z,100390.16
2019-05-01T01:04:46.596Z,100392.98
2019-05-01T01:05:50.988Z,100395.78
2019-05-01T01:06:55.243Z,100392.41
2019-05-01T01:07:59.632Z,100386.80
2019-05-01T01:09:07.615Z,100391.02
2019-05-01T01:10:13.465Z,100391.85
2019-05-01T01:11:17.646Z,100387.66
2019-05-01T01:12:21.921Z,100392.41
2019-05-01T01:13:26.108Z,100393.27
2019-05-01T01:14:30.498Z,100387.11
2019-05-01T01:15:34.670Z,100395.22
2019-05-01T01:16:38.969Z,100397.75
2019-05-01T01:17:43.178Z,100387.39
2019-05-01T01:18:47.548Z,100385.42
2019-05-01T01:19:52.661Z,100391.32
2019-05-01T01:20:56.846Z,100385.72
2019-05-01T01:22:01.185Z,100385.16
2019-05-01T01:23:05.385Z,100386.30
2019-05-01T01:24:09.570Z,100386.02
2019-05-01T01:25:13.825Z,100389.95
2019-05-01T01:26:18.346Z,100388.55
2019-05-01T01:27:23.350Z,100387.42
2019-05-01T01:28:27.557Z,100384.34
2019-05-01T01:29:31.822Z,100385.47
2019-05-01T01:30:36.001Z,100381.55
2019-05-01T01:31:40.249Z,100386.86
2019-05-01T01:32:44.543Z,100379.58
2019-05-01T01:33:49.694Z,100372.56
2019-05-01T01:34:53.949Z,100383.48
2019-05-01T01:35:58.175Z,100376.48
2019-05-01T01:37:02.527Z,100375.64
2019-05-01T01:38:07.598Z,100379.56
2019-05-01T01:39:11.825Z,100363.63
2019-05-01T01:40:16.213Z,100384.07
2019-05-01T01:41:20.399Z,100380.99
2019-05-01T01:42:24.716Z,100377.91
2019-05-01T01:43:48.709Z,100379.31
2019-05-01T01:44:57.230Z,100374.80
2019-05-01T01:46:05.605Z,100380.70
2019-05-01T01:47:09.952Z,100379.86
2019-05-01T01:48:17.655Z,100382.67
2019-05-01T01:49:21.901Z,100379.05
2019-05-01T01:50:26.080Z,100378.77
2019-05-01T01:51:30.348Z,100378.22
2019-05-01T01:52:34.593Z,100377.40
2019-05-01T01:53:39.117Z,100371.79
2019-05-01T01:54:44.567Z,100372.61
2019-05-01T01:55:48.772Z,100375.43
2019-05-01T01:56:52.959Z,100371.52
2019-05-01T01:57:57.281Z,100371.52
2019-05-01T01:59:01.516Z,100374.89
2019-05-01T02:00:08.499Z,100375.19
2019-05-01T02:01:31.342Z,100376.59
2019-05-01T02:02:38.389Z,100374.89
2019-05-01T02:03:47.300Z,100370.97
2019-05-01T02:04:55.892Z,100369.57
2019-05-01T02:06:00.321Z,100369.55
2019-05-01T02:07:05.381Z,100364.80
2019-05-01T02:08:09.690Z,100369.58
2019-05-01T02:09:13.927Z,100370.14
2019-05-01T02:10:18.334Z,100365.10
2019-05-01T02:11:22.669Z,100366.50
2019-05-01T02:12:26.853Z,100369.28
2019-05-01T02:13:31.262Z,100371.25
2019-05-01T02:14:35.445Z,100373.78
2019-05-01T02:15:39.726Z,100371.82
2019-05-01T02:16:44.876Z,100372.95
2019-05-01T02:17:49.049Z,100374.36
2019-05-01T02:18:53.628Z,100369.05
2019-05-01T02:19:57.874Z,100370.45
2019-05-01T02:21:02.059Z,100372.13
2019-05-01T02:22:06.774Z,100375.75
2019-05-01T02:23:11.025Z,100369.61
2019-05-01T02:24:15.207Z,100367.38
2019-05-01T02:25:19.665Z,100371.30
2019-05-01T02:26:25.627Z,100374.38
2019-05-01T02:27:37.040Z,100374.67
2019-05-01T02:28:42.873Z,100362.63
2019-05-01T02:29:48.683Z,100375.52
2019-05-01T02:31:27.185Z,100373.56
2019-05-01T02:32:16.380Z,100374.13
2019-05-01T02:33:20.687Z,100365.45
2019-05-01T02:34:26.195Z,100362.66
2019-05-01T02:35:30.611Z,100367.11
2019-05-01T02:36:34.811Z,100369.64
2019-05-01T02:37:39.069Z,100361.81
2019-05-01T02:38:43.499Z,100365.17
2019-05-01T02:39:47.745Z,100357.04
2019-05-01T02:40:53.681Z,100360.69
2019-05-01T02:41:59.346Z,100355.64
2019-05-01T02:43:03.505Z,100355.64
2019-05-01T02:44:16.694Z,100356.48
2019-05-01T02:45:21.413Z,100362.36
2019-05-01T02:46:25.848Z,100356.48
2019-05-01T02:47:31.996Z,100357.05
2019-05-01T02:48:36.393Z,100354.52
2019-05-01T02:49:51.926Z,100355.08
2019-05-01T02:50:56.964Z,100357.32
2019-05-01T02:52:01.967Z,100364.05
2019-05-01T02:53:06.144Z,100360.41
2019-05-01T02:54:11.184Z,100358.73
2019-05-01T02:55:26.022Z,100357.05
2019-05-01T02:56:34.542Z,100355.66
2019-05-01T02:57:38.728Z,100364.34
2019-05-01T02:58:43.589Z,100357.62
2019-05-01T02:59:50.089Z,100357.34
2019-05-01T03:00:54.273Z,100355.10
2019-05-01T03:01:58.805Z,100354.27
2019-05-01T03:03:02.989Z,100357.06
2019-05-01T03:04:07.206Z,100355.08
2019-05-01T03:05:11.423Z,100358.72
2019-05-01T03:06:16.821Z,100355.36
2019-05-01T03:07:21.162Z,100351.16
2019-05-01T03:08:25.578Z,100358.47
2019-05-01T03:09:29.816Z,100356.50
2019-05-01T03:10:34.468Z,100358.74
2019-05-01T03:11:39.346Z,100351.47
2019-05-01T03:12:44.151Z,100355.38
2019-05-01T03:13:48.358Z,100353.98
2019-05-01T03:14:52.552Z,100354.55
2019-05-01T03:15:56.742Z,100351.47
2019-05-01T03:17:02.194Z,100352.28
2019-05-01T03:18:14.695Z,100355.92
2019-05-01T03:19:35.619Z,100352.28
2019-05-01T03:20:41.507Z,100351.45
2019-05-01T03:21:50.820Z,100355.66
2019-05-01T03:23:14.731Z,100345.86
2019-05-01T03:24:24.476Z,100355.36
2019-05-01T03:25:28.704Z,100359.00
2019-05-01T03:26:32.893Z,100350.33
2019-05-01T03:27:37.163Z,100355.64
2019-05-01T03:28:41.365Z,100347.53
2019-05-01T03:29:45.552Z,100348.37
2019-05-01T03:30:49.840Z,100352.00
2019-05-01T03:32:15.968Z,100353.41
2019-05-01T03:33:00.029Z,100354.80
2019-05-01T03:34:04.945Z,100358.16
2019-05-01T03:35:09.101Z,100352.56
2019-05-01T03:36:14.254Z,100358.16
2019-05-01T03:37:18.435Z,100352.56
2019-05-01T03:38:22.640Z,100349.77
2019-05-01T03:39:27.241Z,100353.97
2019-05-01T03:40:31.565Z,100346.97
2019-05-01T03:41:35.755Z,100355.65
2019-05-01T03:42:40.013Z,100353.41
2019-05-01T03:43:44.267Z,100352.02
2019-05-01T03:44:48.476Z,100346.98
2019-05-01T03:45:53.032Z,100355.09
2019-05-01T03:46:57.204Z,100354.53
2019-05-01T03:48:01.392Z,100348.94
2019-05-01T03:49:05.579Z,100349.22
2019-05-01T03:50:09.762Z,100341.66
2019-05-01T03:51:13.990Z,100350.61
2019-05-01T03:52:18.160Z,100348.09
2019-05-01T03:53:22.694Z,100346.11
2019-05-01T03:54:27.053Z,100339.69
2019-05-01T03:55:31.356Z,100342.76
2019-05-01T03:56:35.573Z,100346.95
2019-05-01T03:57:39.727Z,100341.64
2019-05-01T03:58:43.972Z,100340.24
2019-05-01T03:59:48.190Z,100346.13
2019-05-01T04:01:09.053Z,100344.72
2019-05-01T04:02:33.968Z,100340.25
2019-05-01T04:03:37.180Z,100342.45
2019-05-01T04:04:41.418Z,100345.25
2019-05-01T04:05:45.737Z,100344.97
2019-05-01T04:06:49.943Z,100341.34
2019-05-01T04:07:54.123Z,100349.17
2019-05-01T04:08:58.316Z,100341.34
2019-05-01T04:10:02.563Z,100338.55
2019-05-01T04:11:06.826Z,100341.89
2019-05-01T04:12:11.034Z,100341.09
2019-05-01T04:13:15.365Z,100339.69
2019-05-01T04:14:19.800Z,100342.48
2019-05-01T04:15:24.003Z,100338.30
2019-05-01T04:16:28.291Z,100345.56
2019-05-01T04:17:36.624Z,100334.09
2019-05-01T04:18:40.850Z,100339.13
2019-05-01T04:19:45.111Z,100339.13
2019-05-01T04:20:50.000Z,100336.33
2019-05-01T04:21:56.919Z,100342.48
2019-05-01T04:23:02.338Z,100341.09
2019-05-01T04:24:06.575Z,100339.10
2019-05-01T04:25:10.748Z,100334.34
2019-05-01T04:26:14.937Z,100338.55
2019-05-01T04:27:20.753Z,100334.34
2019-05-01T04:28:26.661Z,100338.83
2019-05-01T04:29:33.532Z,100338.55
2019-05-01T04:30:57.570Z,100333.52
2019-05-01T04:32:20.286Z,100338.55
2019-05-01T04:33:24.540Z,100339.67
2019-05-01T04:34:45.364Z,100338.27
2019-05-01T04:36:07.594Z,100340.23
2019-05-01T04:37:13.436Z,100336.59
2019-05-01T04:38:18.970Z,100336.31
2019-05-01T04:39:23.510Z,100347.78
2019-05-01T04:40:27.731Z,100347.78
2019-05-01T04:41:31.932Z,100340.79
2019-05-01T04:42:36.195Z,100344.14
2019-05-01T04:43:40.363Z,100342.74
2019-05-01T04:44:44.693Z,100350.02
2019-05-01T04:45:50.340Z,100346.09
2019-05-01T04:46:54.527Z,100342.19
2019-05-01T04:47:58.892Z,100348.34
2019-05-01T04:49:03.073Z,100355.33
2019-05-01T04:50:07.280Z,100348.08
2019-05-01T04:51:11.493Z,100349.45
2019-05-01T04:52:15.823Z,100350.29
2019-05-01T04:53:20.018Z,100351.12
2019-05-01T04:54:24.201Z,100355.33
2019-05-01T04:55:28.403Z,100348.05
2019-05-01T04:56:32.615Z,100352.84
2019-05-01T04:57:36.945Z,100353.95
2019-05-01T04:58:41.130Z,100356.47
2019-05-01T04:59:45.392Z,100353.67
2019-05-01T05:00:49.621Z,100357.59
2019-05-01T05:02:01.561Z,100352.00
2019-05-01T05:03:10.375Z,100359.83
2019-05-01T05:04:14.993Z,100358.15
2019-05-01T05:05:19.295Z,100355.63
2019-05-01T05:06:23.601Z,100355.91
2019-05-01T05:07:27.807Z,100355.93
2019-05-01T05:08:31.996Z,100355.07
2019-05-01T05:09:43.181Z,100355.91
2019-05-01T05:10:48.542Z,100359.55
2019-05-01T05:12:00.416Z,100353.11
2019-05-01T05:13:15.907Z,100360.69
2019-05-01T05:14:24.675Z,100358.45
2019-05-01T05:15:33.174Z,100360.38
2019-05-01T05:16:48.280Z,100353.97
2019-05-01T05:17:52.581Z,100357.61
2019-05-01T05:18:56.799Z,100352.29
2019-05-01T05:20:01.190Z,100357.88
2019-05-01T05:21:05.438Z,100360.12
2019-05-01T05:22:09.604Z,100358.16
2019-05-01T05:23:14.760Z,100353.67
2019-05-01T05:24:18.979Z,100354.27
2019-05-01T05:25:23.158Z,100351.16
2019-05-01T05:26:27.341Z,100359.57
2019-05-01T05:27:31.593Z,100365.16
2019-05-01T05:28:35.950Z,100356.48
2019-05-01T05:29:40.231Z,100360.13
2019-05-01T05:30:44.953Z,100358.47
2019-05-01T05:31:49.301Z,100364.34
2019-05-01T05:32:53.693Z,100368.53
2019-05-01T05:33:58.136Z,100367.13
2019-05-01T05:35:02.392Z,100363.48
2019-05-01T05:36:07.032Z,100362.91
2019-05-01T05:37:12.853Z,100361.52
2019-05-01T05:38:33.648Z,100371.89
2019-05-01T05:39:39.502Z,100374.12
2019-05-01T05:40:43.778Z,100370.75
2019-05-01T05:41:48.105Z,100367.13
2019-05-01T05:42:52.322Z,100371.03
2019-05-01T05:43:56.805Z,100369.35
2019-05-01T05:45:01.213Z,100372.70
2019-05-01T05:46:05.476Z,100369.36
2019-05-01T05:47:09.732Z,100379.42
2019-05-01T05:48:13.930Z,100312.80
2019-05-01T05:49:18.140Z,100368.76
2019-05-01T05:50:23.964Z,100367.08
2019-05-01T05:51:44.865Z,100365.70
2019-05-01T05:53:04.471Z,100373.80
2019-05-01T05:54:16.179Z,100372.67
2019-05-01T05:55:31.174Z,100368.18
2019-05-01T05:56:37.204Z,100367.62
2019-05-01T05:57:58.238Z,100362.02
2019-05-01T05:59:07.626Z,100364.83
2019-05-01T06:00:13.501Z,100365.66
2019-05-01T06:01:28.526Z,100358.08
2019-05-01T06:02:34.393Z,100366.48
2019-05-01T06:03:55.467Z,100362.02
2019-05-01T06:05:06.100Z,100362.58
2019-05-01T06:06:17.698Z,100369.56
2019-05-01T06:07:26.485Z,100369.84
2019-05-01T06:08:30.788Z,100370.66
2019-05-01T06:09:36.705Z,100372.91
2019-05-01T06:10:45.536Z,100372.03
2019-05-01T06:11:59.952Z,100370.91
2019-05-01T06:13:23.098Z,100370.62
2019-05-01T06:14:42.249Z,100363.59
2019-05-01T06:16:04.151Z,100368.58
2019-05-01T06:17:28.900Z,100368.58
2019-05-01T06:18:39.281Z,100374.15
2019-05-01T06:19:49.300Z,100369.64
2019-05-01T06:20:57.207Z,100375.21
2019-05-01T06:22:21.463Z,100372.40
2019-05-01T06:23:37.229Z,100368.72
2019-05-01T06:24:43.059Z,100374.28
2019-05-01T06:25:48.894Z,100371.77
2019-05-01T06:26:53.122Z,100371.16
2019-05-01T06:27:57.425Z,100370.01
2019-05-01T06:29:02.445Z,100380.08
2019-05-01T06:30:10.994Z,100371.34
2019-05-01T06:31:23.115Z,100374.39
2019-05-01T06:32:23.889Z,100374.67
2019-05-01T06:33:28.033Z,100373.25
2019-05-01T06:34:32.251Z,100376.03
2019-05-01T06:35:38.078Z,100369.56
2019-05-01T06:36:44.311Z,100369.23
2019-05-01T06:38:02.183Z,100367.24
2019-05-01T06:39:11.879Z,100371.42
2019-05-01T06:40:18.778Z,100365.25
2019-05-01T06:41:21.352Z,100367.73
2019-05-01T06:42:25.472Z,100373.59
2019-05-01T06:43:31.545Z,100369.08
2019-05-01T06:44:45.821Z,100368.22
2019-05-01T06:46:07.912Z,100369.30
2019-05-01T06:47:13.757Z,100372.08
2019-05-01T06:48:19.594Z,100367.86
2019-05-01T06:49:31.297Z,100372.31
2019-05-01T06:50:41.428Z,100366.94
2019-05-01T06:51:48.074Z,100371.66
2019-05-01T06:52:52.640Z,100367.45
2019-05-01T06:53:56.685Z,100373.60
2019-05-01T06:55:00.901Z,100374.41
2019-05-01T06:56:05.080Z,100377.19
2019-05-01T06:57:09.269Z,100380.50
2019-05-01T06:58:14.779Z,100379.33
2019-05-01T06:59:19.473Z,100379.00
2019-05-01T07:00:23.697Z,100375.34
2019-05-01T07:01:27.948Z,100381.20
2019-05-01T07:02:35.126Z,100378.93
2019-05-01T07:03:40.823Z,100363.23
2019-05-01T07:04:44.190Z,100372.10
2019-05-01T07:05:49.158Z,100377.42
2019-05-01T07:06:54.462Z,100375.10
2019-05-01T07:07:58.708Z,100385.75
2019-05-01T07:09:06.958Z,100378.14
2019-05-01T07:10:10.412Z,100371.95
2019-05-01T07:11:15.603Z,100369.09
2019-05-01T07:12:24.009Z,100378.03
2019-05-01T07:13:28.033Z,100377.72
2019-05-01T07:14:41.037Z,100380.50
2019-05-01T07:18:37.427Z,100377.03
2019-05-01T07:19:57.520Z,100380.34
2019-05-01T07:21:02.344Z,100374.97
2019-05-01T07:22:07.479Z,100372.95
2019-05-01T07:23:17.497Z,100376.03
2019-05-01T07:24:19.027Z,100375.11
2019-05-01T07:25:23.210Z,100375.86
2019-05-01T07:26:27.399Z,100379.47
2019-05-01T07:27:31.633Z,100377.98
2019-05-01T07:28:37.000Z,100381.84
2019-05-01T07:29:44.875Z,100382.28
2019-05-01T07:30:56.292Z,100376.33
2019-05-01T07:32:01.700Z,100379.32
2019-05-01T07:33:06.578Z,100379.23
2019-05-01T07:34:16.785Z,100376.36
2019-05-01T07:35:17.004Z,100368.39
2019-05-01T07:36:21.317Z,100379.91
2019-05-01T07:37:27.593Z,100375.61
2019-05-01T07:38:32.882Z,100375.26
2019-05-01T07:39:37.374Z,100377.17
2019-05-01T07:40:41.555Z,100372.28
2019-05-01T07:41:45.840Z,100378.44
2019-05-01T07:42:54.569Z,100375.25
2019-05-01T07:44:18.988Z,100368.41
2019-05-01T07:45:26.591Z,100366.33
2019-05-01T07:46:35.097Z,100370.22
2019-05-01T07:47:40.951Z,100368.45
2019-05-01T07:48:45.228Z,100364.69
2019-05-01T07:49:54.987Z,100364.98
2019-05-01T07:51:01.848Z,100370.52
2019-05-01T07:52:05.118Z,100369.89
2019-05-01T07:53:09.326Z,100368.41
2019-05-01T07:54:13.623Z,100368.87
2019-05-01T07:55:20.079Z,100373.56
2019-05-01T07:56:28.012Z,100371.81
2019-05-01T07:57:34.239Z,100367.03
2019-05-01T07:58:38.350Z,100367.27
2019-05-01T07:59:42.536Z,100371.97
2019-05-01T08:00:54.165Z,100363.97
2019-05-01T08:02:00.002Z,100365.61
2019-05-01T08:03:07.162Z,100368.33
2019-05-01T08:04:13.820Z,100357.04
2019-05-01T08:05:16.354Z,100365.08
2019-05-01T08:06:21.859Z,100351.34
2019-05-01T08:07:27.735Z,100359.89
2019-05-01T08:08:32.334Z,100363.20
2019-05-01T08:09:36.533Z,100358.84
2019-05-01T08:10:41.081Z,100365.78
2019-05-01T08:11:46.022Z,100362.36
2019-05-01T08:12:50.237Z,100363.13
2019-05-01T08:14:06.599Z,100359.61
2019-05-01T08:15:00.297Z,100362.66
2019-05-01T08:16:07.242Z,100363.44
2019-05-01T08:17:12.748Z,100356.83
2019-05-01T08:18:30.982Z,100361.16
2019-05-01T08:19:40.723Z,100359.36
2019-05-01T08:20:58.660Z,100356.44
2019-05-01T08:22:13.892Z,100354.70
2019-05-01T08:23:18.105Z,100360.73
2019-05-01T08:24:24.430Z,100355.31
2019-05-01T08:25:33.106Z,100355.76
2019-05-01T08:26:34.739Z,100351.70
2019-05-01T08:27:46.428Z,100362.04
2019-05-01T08:28:54.951Z,100356.00
2019-05-01T08:30:18.598Z,100356.51
2019-05-01T08:31:29.003Z,100363.98
2019-05-01T08:32:42.171Z,100356.77
2019-05-01T08:33:54.007Z,100358.70
2019-05-01T08:35:02.160Z,100356.95
2019-05-01T08:36:06.785Z,100355.69
2019-05-01T08:37:12.246Z,100358.38
2019-05-01T08:38:16.435Z,100351.77
2019-05-01T08:39:20.640Z,100353.12
2019-05-01T08:40:24.892Z,100354.71
2019-05-01T08:41:31.835Z,100348.62
2019-05-01T08:42:37.747Z,100351.05
2019-05-01T08:43:41.145Z,100348.65
2019-05-01T08:45:05.115Z,100343.53
2019-05-01T08:46:16.531Z,100348.78
2019-05-01T08:47:25.790Z,100350.20
2019-05-01T08:48:46.686Z,100354.88
2019-05-01T08:49:52.597Z,100351.84
2019-05-01T08:50:59.220Z,100347.98
2019-05-01T08:52:11.225Z,100349.28
2019-05-01T08:53:10.965Z,100351.70
2019-05-01T08:54:15.222Z,100347.30
2019-05-01T08:55:19.417Z,100346.59
2019-05-01T08:56:23.946Z,100349.84
2019-05-01T08:57:29.209Z,100341.86
2019-05-01T08:58:34.163Z,100347.14
2019-05-01T08:59:38.482Z,100341.39
2019-05-01T09:00:43.269Z,100348.02
2019-05-01T09:01:50.633Z,100351.27
2019-05-01T09:02:54.017Z,100345.77
2019-05-01T09:03:58.366Z,100341.11
2019-05-01T09:05:06.834Z,100344.55
2019-05-01T09:06:09.189Z,100346.39
2019-05-01T09:07:14.745Z,100338.59
2019-05-01T09:08:19.858Z,100338.66
2019-05-01T09:09:25.077Z,100339.97
2019-05-01T09:10:29.343Z,100338.38
2019-05-01T09:11:36.271Z,100339.96
2019-05-01T09:12:42.583Z,100339.91
2019-05-01T09:13:45.944Z,100336.31
2019-05-01T09:14:51.274Z,100340.73
2019-05-01T09:15:55.998Z,100337.00
2019-05-01T09:17:00.683Z,100333.58
2019-05-01T09:18:05.038Z,100333.74
2019-05-01T09:19:09.462Z,100332.33
2019-05-01T09:20:16.591Z,100334.33
2019-05-01T09:21:20.214Z,100329.98
2019-05-01T09:22:24.520Z,100335.56
2019-05-01T09:23:28.774Z,100326.39
2019-05-01T09:24:33.164Z,100330.16
2019-05-01T09:25:55.129Z,100328.30
2019-05-01T09:27:18.671Z,100329.73
2019-05-01T09:28:35.957Z,100322.23
2019-05-01T09:29:46.916Z,100327.97
2019-05-01T09:31:01.283Z,100325.72
2019-05-01T09:32:00.419Z,100331.45
2019-05-01T09:33:04.988Z,100328.52
2019-05-01T09:34:09.614Z,100326.12
2019-05-01T09:35:15.797Z,100325.96
2019-05-01T09:36:19.824Z,100325.95
2019-05-01T09:37:24.107Z,100319.98
2019-05-01T09:38:28.531Z,100322.91
2019-05-01T09:39:32.831Z,100322.36
2019-05-01T09:40:37.104Z,100319.61
2019-05-01T09:41:43.111Z,100313.73
2019-05-01T09:42:47.652Z,100320.66
2019-05-01T09:43:52.953Z,100322.71
2019-05-01T09:44:57.393Z,100324.20
2019-05-01T09:46:01.835Z,100325.17
2019-05-01T09:47:07.499Z,100313.86
2019-05-01T09:48:11.847Z,100311.67
2019-05-01T09:49:18.223Z,100309.91
2019-05-01T09:50:25.949Z,100302.63
2019-05-01T09:51:47.542Z,100304.56
2019-05-01T09:52:55.271Z,100308.59
2019-05-01T09:54:09.894Z,100307.20
2019-05-01T09:55:23.038Z,100306.74
2019-05-01T09:56:26.468Z,100305.14
2019-05-01T09:57:31.093Z,100304.94
2019-05-01T09:58:35.295Z,100302.14
2019-05-01T09:59:39.549Z,100297.43
2019-05-01T10:00:48.763Z,100299.22
2019-05-01T10:01:50.791Z,100300.22
2019-05-01T10:02:55.042Z,100301.07
2019-05-01T10:03:59.377Z,100298.95
2019-05-01T10:05:06.753Z,100292.25
2019-05-01T10:06:12.821Z,100290.60
2019-05-01T10:07:17.472Z,100285.27
2019-05-01T10:08:21.950Z,100292.47
2019-05-01T10:09:26.936Z,100293.54
2019-05-01T10:10:31.273Z,100296.38
2019-05-01T10:11:40.687Z,100289.16
2019-05-01T10:12:46.868Z,100291.58
2019-05-01T10:13:49.373Z,100289.70
2019-05-01T10:14:53.756Z,100287.21
2019-05-01T10:15:58.266Z,100281.09
2019-05-01T10:17:02.563Z,100282.17
2019-05-01T10:18:07.030Z,100284.83
2019-05-01T10:19:11.354Z,100278.33
2019-05-01T10:20:15.822Z,100278.62
2019-05-01T10:21:22.406Z,100277.94
2019-05-01T10:22:26.302Z,100283.78
2019-05-01T10:23:30.725Z,100275.89
2019-05-01T10:24:37.757Z,100276.64
2019-05-01T10:25:47.426Z,100268.72
2019-05-01T10:26:50.328Z,100274.92
2019-05-01T10:28:01.841Z,100274.80
2019-05-01T10:29:10.582Z,100269.35
2019-05-01T10:30:36.282Z,100264.64
2019-05-01T10:31:59.346Z,100274.13
2019-05-01T10:33:17.778Z,100262.75
2019-05-01T10:34:38.612Z,100268.91
2019-05-01T10:36:00.078Z,100260.38
2019-05-01T10:37:04.844Z,100263.49
2019-05-01T10:38:10.749Z,100256.85
2019-05-01T10:39:16.098Z,100257.09
2019-05-01T10:40:22.431Z,100255.08
2019-05-01T10:41:26.830Z,100252.82
2019-05-01T10:42:31.259Z,100249.98
2019-05-01T10:43:35.541Z,100249.86
2019-05-01T10:44:40.042Z,100254.51
2019-05-01T10:45:45.930Z,100255.69
2019-05-01T10:46:50.253Z,100249.78
2019-05-01T10:47:54.617Z,100239.97
2019-05-01T10:48:59.003Z,100244.23
2019-05-01T10:50:03.820Z,100239.48
2019-05-01T10:51:08.201Z,100241.76
2019-05-01T10:52:14.345Z,100236.64
2019-05-01T10:53:18.667Z,100238.79
2019-05-01T10:54:23.827Z,100236.42
2019-05-01T10:55:28.494Z,100233.92
2019-05-01T10:56:32.861Z,100234.40
2019-05-01T10:57:40.240Z,100234.38
2019-05-01T10:58:43.218Z,100228.67
2019-05-01T10:59:47.636Z,100226.66
2019-05-01T11:00:53.498Z,100227.48
2019-05-01T11:01:59.322Z,100225.70
2019-05-01T11:03:03.504Z,100212.41
2019-05-01T11:04:07.767Z,100230.44
2019-05-01T11:05:11.948Z,100222.05
2019-05-01T11:06:16.299Z,100216.23
2019-05-01T11:07:20.505Z,100229.17
2019-05-01T11:08:24.857Z,100223.48
2019-05-01T11:09:29.197Z,100220.37
2019-05-01T11:10:33.408Z,100223.00
2019-05-01T11:11:37.648Z,100221.32
2019-05-01T11:12:41.779Z,100215.72
2019-05-01T11:13:45.972Z,100214.17
2019-05-01T11:14:50.498Z,100215.23
2019-05-01T11:15:55.935Z,100216.93
2019-05-01T11:17:00.191Z,100215.11
2019-05-01T11:18:05.064Z,100217.95
2019-05-01T11:19:09.468Z,100210.60
2019-05-01T11:20:13.747Z,100207.52
2019-05-01T11:21:17.972Z,100206.88
2019-05-01T11:22:22.258Z,100209.73
2019-05-01T11:23:26.617Z,100204.13
2019-05-01T11:24:30.805Z,100205.14
2019-05-01T11:25:36.340Z,100202.42
2019-05-01T11:26:40.700Z,100202.66
2019-05-01T11:27:45.082Z,100200.77
2019-05-01T11:28:49.329Z,100203.58
2019-05-01T11:29:53.510Z,100202.47
2019-05-01T11:30:57.842Z,100206.41
2019-05-01T11:32:19.964Z,100193.59
2019-05-01T11:33:34.303Z,100200.04
2019-05-01T11:34:45.864Z,100195.67
2019-05-01T11:35:54.241Z,100190.11
2019-05-01T11:37:08.780Z,100196.30
2019-05-01T11:38:20.727Z,100197.00
2019-05-01T11:39:40.275Z,100194.62
2019-05-01T11:40:45.297Z,100192.36
2019-05-01T11:41:56.922Z,100192.03
2019-05-01T11:43:02.800Z,100189.87
2019-05-01T11:49:02.648Z,100186.77
2019-05-01T11:50:07.044Z,100186.17
2019-05-01T11:51:11.222Z,100187.13
2019-05-01T11:52:15.604Z,100181.89
2019-05-01T11:53:19.806Z,100183.09
2019-05-01T11:54:23.997Z,100183.09
2019-05-01T11:55:28.227Z,100180.94
2019-05-01T11:56:32.415Z,100183.06
2019-05-01T11:57:36.808Z,100186.97
2019-05-01T11:58:40.988Z,100180.91
2019-05-01T11:59:45.188Z,100179.74
2019-05-01T12:00:50.465Z,100177.45
2019-05-01T12:01:54.715Z,100177.31
2019-05-01T12:02:58.954Z,100177.88
2019-05-01T12:04:03.256Z,100174.65
2019-05-01T12:05:07.508Z,100178.05
2019-05-01T12:06:22.326Z,100178.73
2019-05-01T12:07:17.760Z,100181.22
2019-05-01T12:08:22.090Z,100174.77
2019-05-01T12:09:26.271Z,100171.63
2019-05-01T12:10:30.674Z,100171.50
2019-05-01T12:11:35.925Z,100171.59
2019-05-01T12:12:40.202Z,100176.38
2019-05-01T12:13:44.508Z,100168.19
2019-05-01T12:14:48.806Z,100175.41
2019-05-01T12:15:54.622Z,100176.92
2019-05-01T12:17:00.473Z,100177.05
2019-05-01T12:18:04.763Z,100168.63
2019-05-01T12:19:09.016Z,100173.14
2019-05-01T12:20:13.773Z,100172.39
2019-05-01T12:21:17.947Z,100171.80
2019-05-01T12:22:22.161Z,100165.63
2019-05-01T12:23:26.364Z,100173.25
2019-05-01T12:24:30.766Z,100173.84
2019-05-01T12:25:35.242Z,100166.54
2019-05-01T12:26:39.420Z,100166.05
2019-05-01T12:27:43.947Z,100148.52
2019-05-01T12:28:48.131Z,100162.79
2019-05-01T12:29:52.479Z,100160.66
2019-05-01T12:30:56.648Z,100164.89
2019-05-01T12:32:00.928Z,100157.27
2019-05-01T12:33:05.097Z,100161.48
2019-05-01T12:34:09.278Z,100163.06
2019-05-01T12:35:13.624Z,100161.77
2019-05-01T12:36:18.040Z,100159.37
2019-05-01T12:37:23.851Z,100158.32
2019-05-01T12:38:28.386Z,100142.23
2019-05-01T12:39:32.636Z,100158.87
2019-05-01T12:40:37.127Z,100156.77
2019-05-01T12:41:45.703Z,100155.11
2019-05-01T12:42:49.890Z,100145.99
2019-05-01T12:43:54.213Z,100153.45
2019-05-01T12:44:59.651Z,100142.52
2019-05-01T12:46:04.642Z,100146.10
2019-05-01T12:47:19.383Z,100143.02